Time;durP1;ratioP1;P1;durP2;ratioP2;P2;SDS_P1;SDS_P2;PMS_P1;PMS_P2;Temp;Humidity;BMP_temperature;BMP_pressure;BME280_temperature;BME280_humidity;BME280_pressure;Samples;Min_cycle;Max_cycle;Signal;HPM_P1;HPM_P2
2022/03/04 14:51:26;;;;;;;0.00;0.00;;;5.90;93.90;;;;;;5102156;27;20198;-71
2022/03/04 14:53:52;;;;;;;0.00;0.00;;;6.00;94.20;;;;;;5098149;28;20028;-71
2022/03/04 14:56:20;;;;;;;0.45;0.20;;;6.10;90.70;;;;;;5095650;28;20134;-73
2022/03/04 14:58:46;;;;;;;0.80;0.80;;;6.00;91.40;;;;;;5098196;28;20014;-71
2022/03/04 15:01:12;;;;;;;0.20;0.20;;;6.00;91.20;;;;;;5096925;28;20048;-72
2022/03/04 15:03:37;;;;;;;0.00;0.00;;;5.90;91.90;;;;;;5096530;28;20040;-72
2022/03/04 15:06:03;;;;;;;0.63;0.60;;;5.90;93.20;;;;;;5097713;28;20071;-73
2022/03/04 15:08:29;;;;;;;0.20;0.20;;;5.80;93.10;;;;;;5096990;28;20024;-71
2022/03/04 15:10:55;;;;;;;1.50;1.05;;;5.80;91.70;;;;;;5101176;28;20102;-70
2022/03/04 15:13:21;;;;;;;0.60;0.22;;;5.90;88.90;;;;;;5097166;28;20289;-71
2022/03/04 15:15:46;;;;;;;0.00;0.00;;;6.00;88.00;;;;;;5098182;28;20083;-73
2022/03/04 15:18:12;;;;;;;0.00;0.00;;;5.90;91.30;;;;;;5096741;28;20212;-72
2022/03/04 15:20:38;;;;;;;0.30;0.30;;;5.90;92.90;;;;;;5096490;28;20488;-73
2022/03/04 15:23:04;;;;;;;0.55;0.52;;;5.80;88.70;;;;;;5096724;28;20016;-77
2022/03/04 15:25:30;;;;;;;0.00;0.00;;;5.90;89.40;;;;;;5096380;28;20028;-71
2022/03/04 15:27:56;;;;;;;0.00;0.00;;;5.90;91.80;;;;;;5097615;28;20009;-72
2022/03/04 15:30:22;;;;;;;0.00;0.00;;;5.80;92.70;;;;;;5096552;28;20036;-72
2022/03/04 15:32:48;;;;;;;0.10;0.10;;;5.80;92.00;;;;;;5095461;28;20012;-71
2022/03/04 15:35:15;;;;;;;0.00;0.00;;;5.70;89.60;;;;;;5096148;28;20023;-74
2022/03/04 15:37:43;;;;;;;0.03;0.03;;;5.70;92.50;;;;;;5097025;28;20044;-74
2022/03/04 15:40:10;;;;;;;0.00;0.00;;;5.60;93.90;;;;;;5095630;28;20027;-72
2022/03/04 15:42:37;;;;;;;0.00;0.00;;;5.60;94.70;;;;;;5095922;28;20024;-74
2022/03/04 15:45:04;;;;;;;0.00;0.00;;;5.50;94.10;;;;;;5095910;28;20242;-80
2022/03/04 15:47:30;;;;;;;0.52;0.52;;;5.50;92.60;;;;;;5097332;28;20028;-72
2022/03/04 15:49:57;;;;;;;0.00;0.00;;;5.60;90.90;;;;;;5091749;28;20067;-73
2022/03/04 15:52:23;;;;;;;0.00;0.00;;;5.70;89.30;;;;;;5083287;28;20232;-75
2022/03/04 15:54:49;;;;;;;0.00;0.00;;;5.60;91.60;;;;;;5082604;28;20111;-74
2022/03/04 15:57:15;;;;;;;0.00;0.00;;;5.70;92.50;;;;;;5079461;28;20021;-73
2022/03/04 15:59:41;;;;;;;0.00;0.00;;;5.70;92.60;;;;;;5072947;28;20028;-73
2022/03/04 16:02:08;;;;;;;0.00;0.00;;;5.60;91.50;;;;;;5055120;28;20041;-74
2022/03/04 16:04:34;;;;;;;0.00;0.00;;;5.60;91.10;;;;;;5053932;28;20067;-74
2022/03/04 16:07:00;;;;;;;0.00;0.00;;;5.60;92.90;;;;;;5056972;28;20025;-73
2022/03/04 16:09:26;;;;;;;0.15;0.15;;;5.60;92.90;;;;;;5055592;28;20028;-73
2022/03/04 16:11:52;;;;;;;0.00;0.00;;;5.60;93.20;;;;;;5056831;28;20021;-72
2022/03/04 16:14:18;;;;;;;0.00;0.00;;;5.60;91.10;;;;;;5062920;28;20211;-71
2022/03/04 16:16:44;;;;;;;0.10;0.10;;;5.80;87.00;;;;;;5063467;28;20036;-73
2022/03/04 16:19:10;;;;;;;0.15;0.15;;;5.90;86.70;;;;;;5061006;28;20092;-76
2022/03/04 16:21:36;;;;;;;1.55;0.30;;;5.90;89.00;;;;;;5061989;28;20205;-75
2022/03/04 16:24:04;;;;;;;0.00;0.00;;;5.90;88.80;;;;;;5063951;28;20024;-72
2022/03/04 16:26:30;;;;;;;0.70;0.55;;;5.90;89.80;;;;;;5062583;28;20032;-72
2022/03/04 16:28:56;;;;;;;0.00;0.00;;;5.80;91.50;;;;;;5061508;28;20025;-75
2022/03/04 16:31:22;;;;;;;0.25;0.25;;;5.70;92.10;;;;;;5059445;28;20043;-69
2022/03/04 16:33:50;;;;;;;0.00;0.00;;;5.70;91.00;;;;;;5063166;28;20080;-69
2022/03/04 16:36:15;;;;;;;0.00;0.00;;;5.60;91.50;;;;;;5060946;28;20017;-70
2022/03/04 16:38:41;;;;;;;0.03;0.03;;;5.60;92.60;;;;;;5061005;28;20334;-67
2022/03/04 16:41:07;;;;;;;0.00;0.00;;;5.60;92.50;;;;;;5061512;28;20028;-72
2022/03/04 16:43:33;;;;;;;0.00;0.00;;;5.60;90.90;;;;;;5062973;28;20244;-72
2022/03/04 16:45:59;;;;;;;0.00;0.00;;;5.60;92.70;;;;;;5056349;28;20029;-71
2022/03/04 16:48:26;;;;;;;0.57;0.57;;;5.50;92.90;;;;;;5038441;28;20024;-71
2022/03/04 16:50:52;;;;;;;0.43;0.43;;;5.50;92.20;;;;;;5038856;28;20069;-75
2022/03/04 16:53:19;;;;;;;1.58;0.10;;;5.50;93.70;;;;;;5037923;28;20083;-74
2022/03/04 16:55:47;;;;;;;0.57;0.47;;;5.50;92.50;;;;;;5041559;28;20105;-70
2022/03/04 16:58:14;;;;;;;0.00;0.00;;;5.50;93.10;;;;;;5050514;28;20328;-76
2022/03/04 17:00:44;;;;;;;0.00;0.00;;;5.50;94.10;;;;;;5038211;28;20036;-72
2022/03/04 17:03:11;;;;;;;3.08;2.45;;;5.50;93.80;;;;;;5038602;28;20067;-71
2022/03/04 17:05:37;;;;;;;0.50;0.50;;;5.40;94.90;;;;;;5037932;28;20091;-74
2022/03/04 17:08:03;;;;;;;0.00;0.00;;;5.30;96.00;;;;;;5038415;28;20327;-75
2022/03/04 17:10:29;;;;;;;0.00;0.00;;;5.30;96.50;;;;;;5037968;28;20382;-71
2022/03/04 17:12:54;;;;;;;1.85;1.73;;;5.20;97.20;;;;;;5034712;28;20064;-71
2022/03/04 17:15:20;;;;;;;0.00;0.00;;;5.10;97.70;;;;;;5035660;28;20009;-71
2022/03/04 17:20:30;;;;;;;0.15;0.15;;;5.00;99.20;;;;;;5038389;28;20377;-75
2022/03/04 17:22:56;;;;;;;0.00;0.00;;;4.90;99.50;;;;;;5039061;28;20044;-72
2022/03/04 17:25:22;;;;;;;0.00;0.00;;;4.80;99.90;;;;;;5034617;28;20025;-74
2022/03/04 17:27:49;;;;;;;0.00;0.00;;;4.80;99.60;;;;;;5037995;28;20029;-72
2022/03/04 17:30:15;;;;;;;0.00;0.00;;;4.80;99.90;;;;;;5037448;28;20025;-71
2022/03/04 17:32:42;;;;;;;0.00;0.00;;;4.70;99.90;;;;;;5040126;28;20055;-72
2022/03/04 17:35:09;;;;;;;0.00;0.00;;;4.70;99.90;;;;;;5036889;28;20021;-78
2022/03/04 17:37:34;;;;;;;0.00;0.00;;;4.60;99.90;;;;;;5036362;28;20042;-72
2022/03/04 17:40:01;;;;;;;0.00;0.00;;;4.60;99.90;;;;;;5039103;28;20063;-71
2022/03/04 17:42:28;;;;;;;0.00;0.00;;;4.50;99.90;;;;;;5037607;28;20176;-72
2022/03/04 17:44:55;;;;;;;0.00;0.00;;;4.50;99.90;;;;;;5045414;28;20017;-71
2022/03/04 17:47:21;;;;;;;0.32;0.32;;;4.50;99.90;;;;;;5039160;28;20048;-72
2022/03/04 17:49:47;;;;;;;0.00;0.00;;;4.50;99.90;;;;;;5054738;28;20051;-71
2022/03/04 17:52:14;;;;;;;0.00;0.00;;;4.50;99.90;;;;;;5058447;28;20024;-77
2022/03/04 17:54:39;;;;;;;0.00;0.00;;;4.60;99.90;;;;;;5078807;28;20031;-72
2022/03/04 17:57:07;;;;;;;0.00;0.00;;;4.60;99.90;;;;;;5068517;28;20412;-77
2022/03/04 17:59:38;;;;;;;1.02;0.98;;;4.70;99.70;;;;;;5076443;28;20046;-76
2022/03/04 18:02:04;;;;;;;0.00;0.00;;;4.60;99.90;;;;;;5078804;28;20028;-76
2022/03/04 18:04:30;;;;;;;0.00;0.00;;;4.60;99.90;;;;;;5064387;28;20059;-75
2022/03/04 18:06:56;;;;;;;0.00;0.00;;;4.50;99.90;;;;;;5078503;28;20039;-70
2022/03/04 18:09:22;;;;;;;0.00;0.00;;;4.60;99.90;;;;;;5062974;28;20028;-73
2022/03/04 18:11:47;;;;;;;0.00;0.00;;;4.60;99.90;;;;;;5061775;28;20039;-72
2022/03/04 18:14:13;;;;;;;0.22;0.22;;;4.50;99.90;;;;;;5070383;28;20303;-76
2022/03/04 18:16:39;;;;;;;0.03;0.03;;;4.60;99.40;;;;;;5058990;28;20032;-73
2022/03/04 18:19:05;;;;;;;0.00;0.00;;;4.50;99.40;;;;;;5058597;28;20307;-76
2022/03/04 18:21:32;;;;;;;0.85;0.85;;;4.50;99.80;;;;;;5064418;28;20076;-73
2022/03/04 18:23:59;;;;;;;0.00;0.00;;;4.60;99.00;;;;;;5077250;28;20028;-74
2022/03/04 18:26:25;;;;;;;0.00;0.00;;;4.60;98.80;;;;;;5060300;28;20047;-72
2022/03/04 18:28:51;;;;;;;0.03;0.03;;;4.70;99.20;;;;;;5063509;28;20325;-70
2022/03/04 18:31:17;;;;;;;0.08;0.08;;;4.60;99.00;;;;;;5078909;28;20222;-74
2022/03/04 18:33:42;;;;;;;0.15;0.05;;;4.50;99.50;;;;;;5080717;28;20063;-76
2022/03/04 18:36:08;;;;;;;0.40;0.35;;;4.50;99.60;;;;;;5058584;28;20020;-76
2022/03/04 18:41:19;;;;;;;0.22;0.22;;;4.60;98.50;;;;;;5080259;28;20040;-71
2022/03/04 18:43:45;;;;;;;0.00;0.00;;;4.60;99.50;;;;;;5071210;28;20021;-71
2022/03/04 18:46:10;;;;;;;0.55;0.38;;;4.50;99.60;;;;;;5079134;28;20020;-76
2022/03/04 18:48:38;;;;;;;2.45;2.35;;;4.50;99.90;;;;;;5077586;28;20414;-74
2022/03/04 18:51:04;;;;;;;0.00;0.00;;;4.50;99.80;;;;;;5097129;28;20039;-78
2022/03/04 18:53:30;;;;;;;0.00;0.00;;;4.40;99.90;;;;;;5100562;28;20026;-72
2022/03/04 18:55:56;;;;;;;0.00;0.00;;;4.40;99.90;;;;;;5076743;28;20423;-78
2022/03/04 18:58:22;;;;;;;0.00;0.00;;;4.50;98.90;;;;;;5067519;28;20092;-73
2022/03/04 19:00:48;;;;;;;0.13;0.13;;;4.50;99.50;;;;;;5071254;28;20226;-73
2022/03/04 19:03:13;;;;;;;0.22;0.20;;;4.50;99.10;;;;;;5075149;28;20028;-73
2022/03/04 19:05:40;;;;;;;0.00;0.00;;;4.50;99.90;;;;;;5075908;28;20029;-72
2022/03/04 19:08:07;;;;;;;0.00;0.00;;;4.50;98.90;;;;;;5077661;28;20020;-78
2022/03/04 19:10:33;;;;;;;0.22;0.22;;;4.60;99.20;;;;;;5075990;28;20304;-72
2022/03/04 19:13:00;;;;;;;0.13;0.13;;;4.60;98.30;;;;;;5058682;28;20031;-72
2022/03/04 19:15:26;;;;;;;6.93;0.45;;;4.70;97.70;;;;;;5060252;28;20211;-75
2022/03/04 19:17:53;;;;;;;0.00;0.00;;;4.60;98.50;;;;;;5078461;28;20031;-72
2022/03/04 19:20:24;;;;;;;0.00;0.00;;;4.60;99.60;;;;;;5077855;28;20338;-76
2022/03/04 19:22:51;;;;;;;0.00;0.00;;;4.50;99.70;;;;;;5081364;28;20017;-71
2022/03/04 19:25:21;;;;;;;0.00;0.00;;;4.40;99.90;;;;;;5057880;28;20329;-75
2022/03/04 19:27:48;;;;;;;0.00;0.00;;;4.50;99.80;;;;;;5064011;28;20108;-75
2022/03/04 19:30:15;;;;;;;0.10;0.03;;;4.50;99.90;;;;;;5074778;28;20082;-71
2022/03/04 19:32:44;;;;;;;0.00;0.00;;;4.50;99.90;;;;;;5080554;28;20115;-71
2022/03/04 19:35:12;;;;;;;0.00;0.00;;;4.50;99.90;;;;;;5062139;28;20024;-76
2022/03/04 19:37:38;;;;;;;;;;;4.40;99.90;;;;;;5074622;28;20051;-73
2022/03/04 19:40:05;;;;;;;0.73;0.73;;;4.30;99.90;;;;;;5075942;28;19901;-75
2022/03/04 19:42:30;;;;;;;0.00;0.00;;;4.30;99.90;;;;;;5065264;28;20051;-73
2022/03/04 19:44:56;;;;;;;0.00;0.00;;;4.30;99.90;;;;;;5074424;28;20235;-75
2022/03/04 19:47:22;;;;;;;0.00;0.00;;;4.30;99.90;;;;;;5078275;28;20348;-72
2022/03/04 19:49:48;;;;;;;0.00;0.00;;;4.30;99.90;;;;;;5076666;28;20052;-72
2022/03/04 19:52:16;;;;;;;0.00;0.00;;;4.30;99.90;;;;;;5074376;28;20095;-73
2022/03/04 19:54:42;;;;;;;0.20;0.20;;;4.30;99.90;;;;;;5079536;28;20127;-73
2022/03/04 19:57:08;;;;;;;0.10;0.10;;;4.30;99.90;;;;;;5063812;28;20012;-79
2022/03/04 19:59:34;;;;;;;0.00;0.00;;;4.30;99.90;;;;;;5070818;28;20029;-71
2022/03/04 20:02:02;;;;;;;0.00;0.00;;;4.30;99.90;;;;;;5080103;28;20051;-75
2022/03/04 20:04:28;;;;;;;0.00;0.00;;;4.30;99.90;;;;;;5070325;28;20052;-72
2022/03/04 20:06:54;;;;;;;0.00;0.00;;;4.30;99.90;;;;;;5061154;28;20028;-73
2022/03/04 20:09:20;;;;;;;0.00;0.00;;;4.20;99.90;;;;;;5062417;28;20032;-75
2022/03/04 20:11:46;;;;;;;0.00;0.00;;;4.20;99.90;;;;;;5078744;28;20055;-76
2022/03/04 20:14:13;;;;;;;0.00;0.00;;;4.20;99.90;;;;;;5060065;28;20024;-73
2022/03/04 20:16:39;;;;;;;0.50;0.50;;;4.20;99.90;;;;;;5077554;28;20016;-75
2022/03/04 20:19:05;;;;;;;0.47;0.47;;;4.20;99.90;;;;;;5059147;28;20028;-74
2022/03/04 20:21:31;;;;;;;0.08;0.08;;;4.20;99.90;;;;;;5063837;28;20020;-73
2022/03/04 20:23:57;;;;;;;1.20;0.47;;;4.20;99.90;;;;;;5060710;28;20036;-76
2022/03/04 20:26:24;;;;;;;0.00;0.00;;;4.20;99.90;;;;;;5082261;28;20032;-73
2022/03/04 20:28:50;;;;;;;0.00;0.00;;;4.20;99.90;;;;;;5062390;28;20028;-72
2022/03/04 20:31:16;;;;;;;0.00;0.00;;;4.20;99.90;;;;;;5065801;28;20217;-77
2022/03/04 20:33:44;;;;;;;0.00;0.00;;;4.20;99.90;;;;;;5060594;28;20024;-75
2022/03/04 20:36:10;;;;;;;0.47;0.47;;;4.30;99.90;;;;;;5075931;28;20062;-77
2022/03/04 20:38:44;;;;;;;0.00;0.00;;;4.30;99.90;;;;;;5072748;28;20337;-79
2022/03/04 20:41:10;;;;;;;0.80;0.80;;;4.30;99.90;;;;;;5065759;28;20036;-75
2022/03/04 20:43:36;;;;;;;0.00;0.00;;;4.20;99.90;;;;;;5059533;28;20028;-75
2022/03/04 20:46:02;;;;;;;0.00;0.00;;;4.20;99.90;;;;;;5071199;28;20019;-75
2022/03/04 20:48:28;;;;;;;0.00;0.00;;;4.20;99.90;;;;;;5069434;28;20155;-76
2022/03/04 20:50:54;;;;;;;0.00;0.00;;;4.20;99.90;;;;;;5084728;28;20389;-75
2022/03/04 20:53:19;;;;;;;0.00;0.00;;;4.20;99.90;;;;;;5070333;28;20021;-75
2022/03/04 20:55:45;;;;;;;0.35;0.35;;;4.10;99.90;;;;;;5066368;28;20020;-75
2022/03/04 20:58:12;;;;;;;0.10;0.10;;;4.10;99.90;;;;;;5058670;28;20024;-73
2022/03/04 21:00:38;;;;;;;0.20;0.20;;;4.00;99.90;;;;;;5079634;28;20016;-76
2022/03/04 21:03:03;;;;;;;0.00;0.00;;;4.10;99.90;;;;;;5063164;28;20250;-73
2022/03/04 21:05:29;;;;;;;0.00;0.00;;;4.00;99.90;;;;;;5078579;28;20051;-72
2022/03/04 21:07:55;;;;;;;0.00;0.00;;;4.00;99.90;;;;;;5079197;28;20085;-74
2022/03/04 21:10:21;;;;;;;0.03;0.03;;;4.00;99.90;;;;;;5079174;28;20084;-73
2022/03/04 21:12:47;;;;;;;0.00;0.00;;;4.00;99.90;;;;;;5072379;28;20016;-76
2022/03/04 21:15:13;;;;;;;0.00;0.00;;;4.00;99.90;;;;;;5071636;28;20024;-74
2022/03/04 21:17:39;;;;;;;0.00;0.00;;;3.90;99.90;;;;;;5058175;28;20029;-73
2022/03/04 21:20:06;;;;;;;0.00;0.00;;;3.90;99.90;;;;;;5074715;28;20028;-75
2022/03/04 21:22:32;;;;;;;0.00;0.00;;;3.90;99.90;;;;;;5084349;28;20051;-73
2022/03/04 21:24:58;;;;;;;0.00;0.00;;;4.00;99.90;;;;;;5103016;28;20087;-72
2022/03/04 21:27:24;;;;;;;0.00;0.00;;;3.90;99.90;;;;;;5084184;28;20260;-73
2022/03/04 21:29:49;;;;;;;0.00;0.00;;;4.00;99.90;;;;;;5083786;28;20038;-73
2022/03/04 21:32:15;;;;;;;0.00;0.00;;;3.90;99.90;;;;;;5083459;28;20024;-72
2022/03/04 21:34:41;;;;;;;0.00;0.00;;;4.00;99.90;;;;;;5083977;28;20020;-73
2022/03/04 21:39:51;;;;;;;0.00;0.00;;;3.90;99.90;;;;;;5102258;28;20043;-74
2022/03/04 21:42:17;;;;;;;0.00;0.00;;;3.90;99.90;;;;;;5083134;28;20318;-74
2022/03/04 21:44:43;;;;;;;0.00;0.00;;;3.80;99.90;;;;;;5084178;28;20016;-74
2022/03/04 21:47:10;;;;;;;0.00;0.00;;;3.80;99.90;;;;;;5075439;28;20304;-76
2022/03/04 21:49:36;;;;;;;0.00;0.00;;;3.90;99.90;;;;;;5075108;28;20223;-73
2022/03/04 21:52:03;;;;;;;2.75;1.35;;;3.80;99.90;;;;;;5083271;28;20024;-72
2022/03/04 21:54:29;;;;;;;0.00;0.00;;;3.80;99.90;;;;;;5101076;28;20027;-73
2022/03/04 21:56:55;;;;;;;3.25;2.22;;;3.80;99.90;;;;;;5084120;28;20016;-73
2022/03/04 21:59:20;;;;;;;0.00;0.00;;;3.80;99.90;;;;;;5082645;28;20062;-72
2022/03/04 22:01:46;;;;;;;0.00;0.00;;;3.90;99.90;;;;;;5084126;28;20028;-72
2022/03/04 22:04:12;;;;;;;0.00;0.00;;;3.90;99.90;;;;;;5082700;28;20318;-72
2022/03/04 22:06:38;;;;;;;0.00;0.00;;;3.90;99.90;;;;;;5082591;28;20019;-72
2022/03/04 22:09:04;;;;;;;0.00;0.00;;;3.80;99.90;;;;;;5106460;28;20019;-72
2022/03/04 22:11:30;;;;;;;0.00;0.00;;;3.90;99.90;;;;;;5087927;28;20138;-72
2022/03/04 22:13:56;;;;;;;0.00;0.00;;;3.90;99.90;;;;;;5100968;28;20094;-72
2022/03/04 22:16:22;;;;;;;2.28;2.08;;;4.00;99.90;;;;;;5083014;28;20023;-72
2022/03/04 22:18:49;;;;;;;0.00;0.00;;;3.90;99.90;;;;;;5083046;28;20306;-72
2022/03/04 22:21:14;;;;;;;0.10;0.10;;;3.80;99.90;;;;;;5083016;28;20024;-71
2022/03/04 22:23:41;;;;;;;0.20;0.20;;;3.90;99.90;;;;;;5083442;28;20066;-73
2022/03/04 22:26:07;;;;;;;0.00;0.00;;;3.90;99.90;;;;;;5080582;28;20016;-74
2022/03/04 22:28:33;;;;;;;0.00;0.00;;;3.80;99.90;;;;;;5083287;28;20299;-70
2022/03/04 22:30:59;;;;;;;0.95;0.95;;;3.90;99.90;;;;;;5082958;28;20065;-71
2022/03/04 22:33:25;;;;;;;1.17;1.08;;;3.90;99.90;;;;;;5101041;28;20329;-71
2022/03/04 22:35:51;;;;;;;0.00;0.00;;;4.00;99.90;;;;;;5082709;28;20020;-71
2022/03/04 22:38:17;;;;;;;1.45;1.25;;;4.00;99.90;;;;;;5082107;28;20356;-71
2022/03/04 22:40:44;;;;;;;0.65;0.30;;;4.00;99.90;;;;;;5082663;28;20032;-72
2022/03/04 22:43:10;;;;;;;0.00;0.00;;;4.00;99.90;;;;;;5082731;28;20016;-73
2022/03/04 22:45:36;;;;;;;0.17;0.17;;;4.10;99.50;;;;;;5083398;28;20020;-71
2022/03/04 22:48:02;;;;;;;0.00;0.00;;;4.00;99.90;;;;;;5100604;28;20016;-71
2022/03/04 22:50:28;;;;;;;2.40;0.22;;;3.90;99.90;;;;;;5082769;28;20357;-71
2022/03/04 22:52:54;;;;;;;0.77;0.60;;;3.90;99.90;;;;;;5083281;28;20024;-71
2022/03/04 22:55:20;;;;;;;0.00;0.00;;;3.90;99.90;;;;;;5083073;28;20027;-72
2022/03/04 22:57:46;;;;;;;4.72;4.30;;;4.00;99.90;;;;;;5082714;28;20044;-72
2022/03/04 23:00:40;;;;;;;1.35;1.35;;;3.90;99.90;;;;;;5082341;28;20020;-72
2022/03/04 23:08:34;;;;;;;0.00;0.00;;;3.70;99.90;;;;;;5101121;28;20047;-72
2022/03/04 23:13:45;;;;;;;0.00;0.00;;;3.70;99.90;;;;;;5104947;28;20241;-73
2022/03/04 23:16:12;;;;;;;8.25;0.75;;;3.70;99.90;;;;;;5082527;28;20038;-74
2022/03/04 23:18:38;;;;;;;2.28;2.17;;;3.70;99.90;;;;;;5104659;28;20294;-76
2022/03/04 23:21:07;;;;;;;0.00;0.00;;;3.70;99.90;;;;;;5104602;28;20020;-74
2022/03/04 23:23:33;;;;;;;0.00;0.00;;;3.80;99.90;;;;;;5087672;28;20027;-74
2022/03/04 23:26:01;;;;;;;0.00;0.00;;;3.70;99.90;;;;;;5088021;28;20621;-74
2022/03/04 23:28:26;;;;;;;0.00;0.00;;;3.60;99.90;;;;;;5105153;28;20027;-75
2022/03/04 23:30:52;;;;;;;0.00;0.00;;;3.60;99.90;;;;;;5104044;28;20020;-74
2022/03/04 23:33:18;;;;;;;0.00;0.00;;;3.60;99.90;;;;;;5086492;28;20095;-73
2022/03/04 23:35:44;;;;;;;0.00;0.00;;;3.60;99.90;;;;;;5086332;28;20087;-72
2022/03/04 23:38:10;;;;;;;0.00;0.00;;;3.60;99.90;;;;;;5103975;28;20082;-74
2022/03/04 23:40:35;;;;;;;4.30;0.85;;;3.60;99.90;;;;;;5104105;28;20016;-73
2022/03/04 23:43:01;;;;;;;0.00;0.00;;;3.70;99.90;;;;;;5104468;28;20175;-73
2022/03/04 23:45:27;;;;;;;0.47;0.30;;;3.70;99.90;;;;;;5085691;28;20400;-72
2022/03/04 23:47:53;;;;;;;0.00;0.00;;;3.70;99.90;;;;;;5086178;28;20020;-71
2022/03/04 23:50:18;;;;;;;0.30;0.30;;;3.70;99.90;;;;;;5084884;28;20101;-72
2022/03/04 23:52:45;;;;;;;0.22;0.08;;;3.60;99.90;;;;;;5085135;28;20036;-72
2022/03/04 23:55:11;;;;;;;0.00;0.00;;;3.60;99.90;;;;;;5103396;28;20153;-75
2022/03/04 23:57:37;;;;;;;0.00;0.00;;;3.60;99.90;;;;;;5104560;28;20104;-72
